sensor_id;sensor_type;location;lat;lon;timestamp;temperature;humidity
67273;DHT22;54190;49.770;9.250;2023-02-18T00:01:01;11.30;99.90
67273;DHT22;54190;49.770;9.250;2023-02-18T00:03:28;11.40;99.90
67273;DHT22;54190;49.770;9.250;2023-02-18T00:05:53;11.40;99.90
67273;DHT22;54190;49.770;9.250;2023-02-18T00:08:20;11.30;99.90
67273;DHT22;54190;49.770;9.250;2023-02-18T00:10:46;11.30;99.90
67273;DHT22;54190;49.770;9.250;2023-02-18T00:13:12;11.30;99.90
67273;DHT22;54190;49.770;9.250;2023-02-18T00:15:38;11.40;99.90
67273;DHT22;54190;49.770;9.250;2023-02-18T00:18:04;11.40;99.90
67273;DHT22;54190;49.770;9.250;2023-02-18T00:20:30;11.40;99.90
67273;DHT22;54190;49.770;9.250;2023-02-18T00:22:58;11.40;99.90
67273;DHT22;54190;49.770;9.250;2023-02-18T00:25:24;11.30;99.90
67273;DHT22;54190;49.770;9.250;2023-02-18T00:27:50;11.30;99.90
67273;DHT22;54190;49.770;9.250;2023-02-18T00:30:15;11.30;99.90
67273;DHT22;54190;49.770;9.250;2023-02-18T00:32:41;11.30;99.90
67273;DHT22;54190;49.770;9.250;2023-02-18T00:35:07;11.30;99.90
67273;DHT22;54190;49.770;9.250;2023-02-18T00:37:33;11.30;99.90
67273;DHT22;54190;49.770;9.250;2023-02-18T00:39:59;11.30;99.90
67273;DHT22;54190;49.770;9.250;2023-02-18T00:42:25;11.30;99.90
67273;DHT22;54190;49.770;9.250;2023-02-18T00:44:52;11.30;99.90
67273;DHT22;54190;49.770;9.250;2023-02-18T00:47:20;11.20;99.90
67273;DHT22;54190;49.770;9.250;2023-02-18T00:49:45;11.20;99.90
67273;DHT22;54190;49.770;9.250;2023-02-18T00:52:11;11.20;99.90
67273;DHT22;54190;49.770;9.250;2023-02-18T00:54:39;11.20;99.90
67273;DHT22;54190;49.770;9.250;2023-02-18T00:57:05;11.20;99.90
67273;DHT22;54190;49.770;9.250;2023-02-18T00:59:30;11.10;99.90
67273;DHT22;54190;49.770;9.250;2023-02-18T01:01:59;11.10;99.90
67273;DHT22;54190;49.770;9.250;2023-02-18T01:04:25;11.10;99.90
67273;DHT22;54190;49.770;9.250;2023-02-18T01:06:51;11.10;99.90
67273;DHT22;54190;49.770;9.250;2023-02-18T01:09:17;11.10;99.90
67273;DHT22;54190;49.770;9.250;2023-02-18T01:11:43;11.10;99.90
67273;DHT22;54190;49.770;9.250;2023-02-18T01:14:08;11.00;99.90
67273;DHT22;54190;49.770;9.250;2023-02-18T01:16:34;11.00;99.90
67273;DHT22;54190;49.770;9.250;2023-02-18T01:19:00;11.00;99.90
67273;DHT22;54190;49.770;9.250;2023-02-18T01:21:25;11.00;99.90
67273;DHT22;54190;49.770;9.250;2023-02-18T01:23:51;10.90;99.90
67273;DHT22;54190;49.770;9.250;2023-02-18T01:26:17;10.90;99.90
67273;DHT22;54190;49.770;9.250;2023-02-18T01:28:43;10.90;99.90
67273;DHT22;54190;49.770;9.250;2023-02-18T01:31:11;10.90;99.90
67273;DHT22;54190;49.770;9.250;2023-02-18T01:33:38;10.90;99.90
67273;DHT22;54190;49.770;9.250;2023-02-18T01:36:04;10.80;99.90
67273;DHT22;54190;49.770;9.250;2023-02-18T01:38:29;10.80;99.90
67273;DHT22;54190;49.770;9.250;2023-02-18T01:40:55;10.80;99.90
67273;DHT22;54190;49.770;9.250;2023-02-18T01:43:21;10.80;99.90
67273;DHT22;54190;49.770;9.250;2023-02-18T01:46:06;10.80;99.90
67273;DHT22;54190;49.770;9.250;2023-02-18T01:48:39;10.80;99.90
67273;DHT22;54190;49.770;9.250;2023-02-18T01:51:20;10.80;99.90
67273;DHT22;54190;49.770;9.250;2023-02-18T01:54:09;10.80;99.90
67273;DHT22;54190;49.770;9.250;2023-02-18T01:56:44;10.80;99.90
67273;DHT22;54190;49.770;9.250;2023-02-18T01:59:24;10.70;99.90
67273;DHT22;54190;49.770;9.250;2023-02-18T02:01:51;10.70;99.90
67273;DHT22;54190;49.770;9.250;2023-02-18T02:04:17;10.80;99.90
67273;DHT22;54190;49.770;9.250;2023-02-18T02:06:43;10.80;99.90
67273;DHT22;54190;49.770;9.250;2023-02-18T02:09:11;10.80;99.90
67273;DHT22;54190;49.770;9.250;2023-02-18T02:23:24;10.80;99.90
67273;DHT22;54190;49.770;9.250;2023-02-18T02:36:52;10.80;99.90
67273;DHT22;54190;49.770;9.250;2023-02-18T02:39:55;10.80;99.90
67273;DHT22;54190;49.770;9.250;2023-02-18T02:42:39;10.70;99.90
67273;DHT22;54190;49.770;9.250;2023-02-18T02:53:25;10.80;99.90
67273;DHT22;54190;49.770;9.250;2023-02-18T02:55:51;10.80;99.90
67273;DHT22;54190;49.770;9.250;2023-02-18T02:58:19;10.70;99.90
67273;DHT22;54190;49.770;9.250;2023-02-18T03:01:16;10.70;99.90
67273;DHT22;54190;49.770;9.250;2023-02-18T03:04:12;10.70;99.90
67273;DHT22;54190;49.770;9.250;2023-02-18T03:09:25;10.70;99.90
67273;DHT22;54190;49.770;9.250;2023-02-18T03:20:45;10.60;99.90
67273;DHT22;54190;49.770;9.250;2023-02-18T03:22:52;10.50;99.90
67273;DHT22;54190;49.770;9.250;2023-02-18T03:25:18;10.50;99.90
67273;DHT22;54190;49.770;9.250;2023-02-18T03:28:07;10.60;99.90
67273;DHT22;54190;49.770;9.250;2023-02-18T03:30:45;10.60;99.90
67273;DHT22;54190;49.770;9.250;2023-02-18T03:33:16;10.60;99.90
67273;DHT22;54190;49.770;9.250;2023-02-18T03:35:43;10.60;99.90
67273;DHT22;54190;49.770;9.250;2023-02-18T03:38:27;10.60;99.90
67273;DHT22;54190;49.770;9.250;2023-02-18T03:40:56;10.60;99.90
67273;DHT22;54190;49.770;9.250;2023-02-18T03:43:22;10.60;99.90
67273;DHT22;54190;49.770;9.250;2023-02-18T03:45:48;10.60;99.90
67273;DHT22;54190;49.770;9.250;2023-02-18T03:48:14;10.50;99.90
67273;DHT22;54190;49.770;9.250;2023-02-18T03:50:39;10.50;99.90
67273;DHT22;54190;49.770;9.250;2023-02-18T03:53:05;10.50;99.90
67273;DHT22;54190;49.770;9.250;2023-02-18T03:55:31;10.50;99.90
67273;DHT22;54190;49.770;9.250;2023-02-18T03:57:56;10.50;99.90
67273;DHT22;54190;49.770;9.250;2023-02-18T04:00:22;10.50;99.90
67273;DHT22;54190;49.770;9.250;2023-02-18T04:02:47;10.50;99.90
67273;DHT22;54190;49.770;9.250;2023-02-18T04:05:13;10.50;99.90
67273;DHT22;54190;49.770;9.250;2023-02-18T04:07:39;10.50;99.90
67273;DHT22;54190;49.770;9.250;2023-02-18T04:10:05;10.50;99.90
67273;DHT22;54190;49.770;9.250;2023-02-18T04:12:31;10.50;99.90
67273;DHT22;54190;49.770;9.250;2023-02-18T04:14:56;10.50;99.90
67273;DHT22;54190;49.770;9.250;2023-02-18T04:17:22;10.50;99.90
67273;DHT22;54190;49.770;9.250;2023-02-18T04:19:48;10.50;99.90
67273;DHT22;54190;49.770;9.250;2023-02-18T04:22:13;10.60;99.90
67273;DHT22;54190;49.770;9.250;2023-02-18T04:24:39;10.60;99.90
67273;DHT22;54190;49.770;9.250;2023-02-18T04:27:04;10.60;99.90
67273;DHT22;54190;49.770;9.250;2023-02-18T04:29:30;10.60;99.90
67273;DHT22;54190;49.770;9.250;2023-02-18T04:31:56;10.60;99.90
67273;DHT22;54190;49.770;9.250;2023-02-18T04:34:22;10.60;99.90
67273;DHT22;54190;49.770;9.250;2023-02-18T04:36:47;10.60;99.90
67273;DHT22;54190;49.770;9.250;2023-02-18T04:39:13;10.50;99.90
67273;DHT22;54190;49.770;9.250;2023-02-18T04:41:38;10.50;99.90
67273;DHT22;54190;49.770;9.250;2023-02-18T04:44:04;10.50;99.90
67273;DHT22;54190;49.770;9.250;2023-02-18T04:46:30;10.40;99.90
67273;DHT22;54190;49.770;9.250;2023-02-18T04:48:56;10.40;99.90
67273;DHT22;54190;49.770;9.250;2023-02-18T04:51:21;10.40;99.90
67273;DHT22;54190;49.770;9.250;2023-02-18T04:53:47;10.30;99.90
67273;DHT22;54190;49.770;9.250;2023-02-18T04:56:12;10.30;99.90
67273;DHT22;54190;49.770;9.250;2023-02-18T04:58:38;10.30;99.90
67273;DHT22;54190;49.770;9.250;2023-02-18T05:01:04;10.30;99.90
67273;DHT22;54190;49.770;9.250;2023-02-18T05:03:30;10.30;99.90
67273;DHT22;54190;49.770;9.250;2023-02-18T05:05:56;10.30;99.90
67273;DHT22;54190;49.770;9.250;2023-02-18T05:08:22;10.40;99.90
67273;DHT22;54190;49.770;9.250;2023-02-18T05:10:48;10.30;99.90
67273;DHT22;54190;49.770;9.250;2023-02-18T05:13:13;10.30;99.90
67273;DHT22;54190;49.770;9.250;2023-02-18T05:15:39;10.30;99.90
67273;DHT22;54190;49.770;9.250;2023-02-18T05:18:05;10.30;99.90
67273;DHT22;54190;49.770;9.250;2023-02-18T05:20:31;10.30;99.90
67273;DHT22;54190;49.770;9.250;2023-02-18T05:22:57;10.30;99.90
67273;DHT22;54190;49.770;9.250;2023-02-18T05:25:22;10.30;99.90
67273;DHT22;54190;49.770;9.250;2023-02-18T05:27:48;10.30;99.90
67273;DHT22;54190;49.770;9.250;2023-02-18T05:30:14;10.30;99.90
67273;DHT22;54190;49.770;9.250;2023-02-18T05:32:39;10.30;99.90
67273;DHT22;54190;49.770;9.250;2023-02-18T05:35:05;10.30;99.90
67273;DHT22;54190;49.770;9.250;2023-02-18T05:37:31;10.30;99.90
67273;DHT22;54190;49.770;9.250;2023-02-18T05:39:57;10.30;99.90
67273;DHT22;54190;49.770;9.250;2023-02-18T05:42:22;10.30;99.90
67273;DHT22;54190;49.770;9.250;2023-02-18T05:44:48;10.30;99.90
67273;DHT22;54190;49.770;9.250;2023-02-18T05:47:14;10.30;99.90
67273;DHT22;54190;49.770;9.250;2023-02-18T05:49:40;10.30;99.90
67273;DHT22;54190;49.770;9.250;2023-02-18T05:52:07;10.30;99.90
67273;DHT22;54190;49.770;9.250;2023-02-18T05:54:34;10.30;99.90
67273;DHT22;54190;49.770;9.250;2023-02-18T05:57:00;10.30;99.90
67273;DHT22;54190;49.770;9.250;2023-02-18T05:59:26;10.30;99.90
67273;DHT22;54190;49.770;9.250;2023-02-18T06:01:51;10.30;99.90
67273;DHT22;54190;49.770;9.250;2023-02-18T06:04:17;10.30;99.90
67273;DHT22;54190;49.770;9.250;2023-02-18T06:06:43;10.20;99.90
67273;DHT22;54190;49.770;9.250;2023-02-18T06:09:09;10.20;99.90
67273;DHT22;54190;49.770;9.250;2023-02-18T06:11:35;10.20;99.90
67273;DHT22;54190;49.770;9.250;2023-02-18T06:14:00;10.20;99.90
67273;DHT22;54190;49.770;9.250;2023-02-18T06:16:26;10.20;99.90
67273;DHT22;54190;49.770;9.250;2023-02-18T06:18:52;10.20;99.90
67273;DHT22;54190;49.770;9.250;2023-02-18T06:21:18;10.20;99.90
67273;DHT22;54190;49.770;9.250;2023-02-18T06:23:43;10.20;99.90
67273;DHT22;54190;49.770;9.250;2023-02-18T06:26:09;10.30;99.90
67273;DHT22;54190;49.770;9.250;2023-02-18T06:28:35;10.30;99.90
67273;DHT22;54190;49.770;9.250;2023-02-18T06:31:00;10.30;99.90
67273;DHT22;54190;49.770;9.250;2023-02-18T06:33:26;10.30;99.90
67273;DHT22;54190;49.770;9.250;2023-02-18T06:36:04;10.30;99.90
67273;DHT22;54190;49.770;9.250;2023-02-18T06:38:37;10.30;99.90
67273;DHT22;54190;49.770;9.250;2023-02-18T06:41:03;10.30;99.90
67273;DHT22;54190;49.770;9.250;2023-02-18T06:43:28;10.30;99.90
67273;DHT22;54190;49.770;9.250;2023-02-18T06:45:54;10.30;99.90
67273;DHT22;54190;49.770;9.250;2023-02-18T06:48:20;10.30;99.90
67273;DHT22;54190;49.770;9.250;2023-02-18T06:50:45;10.30;99.90
67273;DHT22;54190;49.770;9.250;2023-02-18T06:53:11;10.40;99.90
67273;DHT22;54190;49.770;9.250;2023-02-18T06:55:38;10.30;99.90
67273;DHT22;54190;49.770;9.250;2023-02-18T06:58:03;10.30;99.90
67273;DHT22;54190;49.770;9.250;2023-02-18T07:00:30;10.30;99.90
67273;DHT22;54190;49.770;9.250;2023-02-18T07:02:55;10.30;99.90
67273;DHT22;54190;49.770;9.250;2023-02-18T07:05:21;10.30;99.90
67273;DHT22;54190;49.770;9.250;2023-02-18T07:07:47;10.30;99.90
67273;DHT22;54190;49.770;9.250;2023-02-18T07:10:13;10.30;99.90
67273;DHT22;54190;49.770;9.250;2023-02-18T07:12:39;10.30;99.90
67273;DHT22;54190;49.770;9.250;2023-02-18T07:15:05;10.30;99.90
67273;DHT22;54190;49.770;9.250;2023-02-18T07:17:30;10.20;99.90
67273;DHT22;54190;49.770;9.250;2023-02-18T07:19:56;10.20;99.90
67273;DHT22;54190;49.770;9.250;2023-02-18T07:22:21;10.20;99.90
67273;DHT22;54190;49.770;9.250;2023-02-18T07:24:53;10.30;99.90
67273;DHT22;54190;49.770;9.250;2023-02-18T07:27:19;10.30;99.90
67273;DHT22;54190;49.770;9.250;2023-02-18T07:29:45;10.30;99.90
67273;DHT22;54190;49.770;9.250;2023-02-18T07:32:12;10.30;99.90
67273;DHT22;54190;49.770;9.250;2023-02-18T07:34:37;10.30;99.90
67273;DHT22;54190;49.770;9.250;2023-02-18T07:37:03;10.30;99.90
67273;DHT22;54190;49.770;9.250;2023-02-18T07:39:43;10.30;99.90
67273;DHT22;54190;49.770;9.250;2023-02-18T07:42:12;10.30;99.90
67273;DHT22;54190;49.770;9.250;2023-02-18T07:44:39;10.30;99.90
67273;DHT22;54190;49.770;9.250;2023-02-18T07:47:07;10.30;99.90
67273;DHT22;54190;49.770;9.250;2023-02-18T07:49:34;10.40;99.90
67273;DHT22;54190;49.770;9.250;2023-02-18T07:52:00;10.40;99.90
67273;DHT22;54190;49.770;9.250;2023-02-18T07:54:26;10.40;99.90
67273;DHT22;54190;49.770;9.250;2023-02-18T07:56:52;10.40;99.90
67273;DHT22;54190;49.770;9.250;2023-02-18T07:59:19;10.40;99.90
67273;DHT22;54190;49.770;9.250;2023-02-18T08:01:44;10.40;99.90
67273;DHT22;54190;49.770;9.250;2023-02-18T08:04:10;10.50;99.90
67273;DHT22;54190;49.770;9.250;2023-02-18T08:06:38;10.50;99.90
67273;DHT22;54190;49.770;9.250;2023-02-18T08:09:05;10.50;99.90
67273;DHT22;54190;49.770;9.250;2023-02-18T08:11:32;10.60;99.90
67273;DHT22;54190;49.770;9.250;2023-02-18T08:13:58;10.70;99.90
67273;DHT22;54190;49.770;9.250;2023-02-18T08:16:23;10.70;99.90
67273;DHT22;54190;49.770;9.250;2023-02-18T08:18:50;10.70;99.90
67273;DHT22;54190;49.770;9.250;2023-02-18T08:21:17;10.70;99.90
67273;DHT22;54190;49.770;9.250;2023-02-18T08:23:43;10.80;99.90
67273;DHT22;54190;49.770;9.250;2023-02-18T08:26:10;10.90;99.90
67273;DHT22;54190;49.770;9.250;2023-02-18T08:28:41;10.90;99.90
67273;DHT22;54190;49.770;9.250;2023-02-18T08:31:12;10.90;99.90
67273;DHT22;54190;49.770;9.250;2023-02-18T08:33:40;10.80;99.90
67273;DHT22;54190;49.770;9.250;2023-02-18T08:36:06;10.80;99.90
67273;DHT22;54190;49.770;9.250;2023-02-18T08:38:32;10.80;99.90
67273;DHT22;54190;49.770;9.250;2023-02-18T08:41:02;10.80;99.90
67273;DHT22;54190;49.770;9.250;2023-02-18T08:43:28;10.90;99.90
67273;DHT22;54190;49.770;9.250;2023-02-18T08:45:53;10.90;99.90
67273;DHT22;54190;49.770;9.250;2023-02-18T08:48:21;10.90;99.90
67273;DHT22;54190;49.770;9.250;2023-02-18T08:50:47;10.90;99.90
67273;DHT22;54190;49.770;9.250;2023-02-18T08:53:13;11.00;99.90
67273;DHT22;54190;49.770;9.250;2023-02-18T08:55:39;11.10;99.90
67273;DHT22;54190;49.770;9.250;2023-02-18T08:58:05;11.10;99.90
67273;DHT22;54190;49.770;9.250;2023-02-18T09:00:32;11.00;99.90
67273;DHT22;54190;49.770;9.250;2023-02-18T09:02:58;11.10;99.90
67273;DHT22;54190;49.770;9.250;2023-02-18T09:05:23;11.10;99.90
67273;DHT22;54190;49.770;9.250;2023-02-18T09:07:49;11.20;99.90
67273;DHT22;54190;49.770;9.250;2023-02-18T09:10:15;11.10;99.90
67273;DHT22;54190;49.770;9.250;2023-02-18T09:12:40;11.10;99.90
67273;DHT22;54190;49.770;9.250;2023-02-18T09:15:06;11.10;99.90
67273;DHT22;54190;49.770;9.250;2023-02-18T09:17:32;11.10;99.90
67273;DHT22;54190;49.770;9.250;2023-02-18T09:19:58;11.20;99.90
67273;DHT22;54190;49.770;9.250;2023-02-18T09:22:24;11.20;99.90
67273;DHT22;54190;49.770;9.250;2023-02-18T09:24:49;11.20;99.90
67273;DHT22;54190;49.770;9.250;2023-02-18T09:27:15;11.20;99.90
67273;DHT22;54190;49.770;9.250;2023-02-18T09:29:41;11.20;99.90
67273;DHT22;54190;49.770;9.250;2023-02-18T09:32:08;11.20;99.90
67273;DHT22;54190;49.770;9.250;2023-02-18T09:34:34;11.30;99.90
67273;DHT22;54190;49.770;9.250;2023-02-18T09:37:01;11.30;99.90
67273;DHT22;54190;49.770;9.250;2023-02-18T09:39:27;11.30;99.90
67273;DHT22;54190;49.770;9.250;2023-02-18T09:41:54;11.30;99.90
67273;DHT22;54190;49.770;9.250;2023-02-18T09:44:26;11.30;99.90
67273;DHT22;54190;49.770;9.250;2023-02-18T09:47:05;11.30;99.90
67273;DHT22;54190;49.770;9.250;2023-02-18T09:49:37;11.30;99.90
67273;DHT22;54190;49.770;9.250;2023-02-18T09:54:32;11.30;99.90
67273;DHT22;54190;49.770;9.250;2023-02-18T09:56:58;11.30;99.90
67273;DHT22;54190;49.770;9.250;2023-02-18T09:59:25;11.30;99.90
67273;DHT22;54190;49.770;9.250;2023-02-18T10:01:52;11.30;99.90
67273;DHT22;54190;49.770;9.250;2023-02-18T10:04:27;11.30;99.90
67273;DHT22;54190;49.770;9.250;2023-02-18T10:06:55;11.40;99.90
67273;DHT22;54190;49.770;9.250;2023-02-18T10:09:32;11.40;99.90
67273;DHT22;54190;49.770;9.250;2023-02-18T10:12:13;11.30;99.90
67273;DHT22;54190;49.770;9.250;2023-02-18T10:14:48;11.30;99.90
67273;DHT22;54190;49.770;9.250;2023-02-18T10:17:16;11.40;99.90
67273;DHT22;54190;49.770;9.250;2023-02-18T10:19:43;11.30;99.90
67273;DHT22;54190;49.770;9.250;2023-02-18T10:22:12;11.40;99.90
67273;DHT22;54190;49.770;9.250;2023-02-18T10:24:43;11.40;99.90
67273;DHT22;54190;49.770;9.250;2023-02-18T10:27:26;11.50;99.90
67273;DHT22;54190;49.770;9.250;2023-02-18T10:29:59;11.50;99.90
67273;DHT22;54190;49.770;9.250;2023-02-18T10:32:38;11.60;99.90
67273;DHT22;54190;49.770;9.250;2023-02-18T10:35:37;11.70;99.90
67273;DHT22;54190;49.770;9.250;2023-02-18T10:38:13;11.70;99.90
67273;DHT22;54190;49.770;9.250;2023-02-18T10:40:51;11.70;99.90
67273;DHT22;54190;49.770;9.250;2023-02-18T10:51:58;11.80;99.90
67273;DHT22;54190;49.770;9.250;2023-02-18T10:54:25;11.90;99.90
67273;DHT22;54190;49.770;9.250;2023-02-18T10:56:54;11.80;99.90
67273;DHT22;54190;49.770;9.250;2023-02-18T10:59:31;11.80;99.90
67273;DHT22;54190;49.770;9.250;2023-02-18T11:02:09;11.80;99.90
67273;DHT22;54190;49.770;9.250;2023-02-18T11:04:40;11.90;99.90
67273;DHT22;54190;49.770;9.250;2023-02-18T11:07:24;12.00;99.90
67273;DHT22;54190;49.770;9.250;2023-02-18T11:09:55;12.00;99.90
67273;DHT22;54190;49.770;9.250;2023-02-18T11:12:46;12.00;99.90
67273;DHT22;54190;49.770;9.250;2023-02-18T11:17:40;11.90;99.90
67273;DHT22;54190;49.770;9.250;2023-02-18T11:20:33;11.80;99.90
67273;DHT22;54190;49.770;9.250;2023-02-18T11:23:15;11.90;99.90
67273;DHT22;54190;49.770;9.250;2023-02-18T11:25:41;11.80;99.90
67273;DHT22;54190;49.770;9.250;2023-02-18T11:30:44;11.80;99.90
67273;DHT22;54190;49.770;9.250;2023-02-18T11:33:22;11.70;99.90
67273;DHT22;54190;49.770;9.250;2023-02-18T11:35:56;11.70;99.90
67273;DHT22;54190;49.770;9.250;2023-02-18T11:38:25;11.70;99.90
67273;DHT22;54190;49.770;9.250;2023-02-18T11:41:02;11.60;99.90
67273;DHT22;54190;49.770;9.250;2023-02-18T11:43:31;11.70;99.90
67273;DHT22;54190;49.770;9.250;2023-02-18T11:46:16;11.70;99.90
67273;DHT22;54190;49.770;9.250;2023-02-18T11:48:42;11.70;99.90
67273;DHT22;54190;49.770;9.250;2023-02-18T11:51:26;11.80;99.90
67273;DHT22;54190;49.770;9.250;2023-02-18T11:54:43;11.80;99.90
67273;DHT22;54190;49.770;9.250;2023-02-18T11:57:03;11.80;99.90
67273;DHT22;54190;49.770;9.250;2023-02-18T11:59:35;11.90;99.90
67273;DHT22;54190;49.770;9.250;2023-02-18T12:04:40;11.90;99.90
67273;DHT22;54190;49.770;9.250;2023-02-18T12:07:26;11.90;99.90
67273;DHT22;54190;49.770;9.250;2023-02-18T12:10:03;11.90;99.90
67273;DHT22;54190;49.770;9.250;2023-02-18T12:12:29;12.00;99.90
67273;DHT22;54190;49.770;9.250;2023-02-18T12:14:56;12.10;99.90
67273;DHT22;54190;49.770;9.250;2023-02-18T12:48:20;12.40;99.90
67273;DHT22;54190;49.770;9.250;2023-02-18T12:51:12;12.40;99.90
67273;DHT22;54190;49.770;9.250;2023-02-18T13:04:53;12.00;99.90
67273;DHT22;54190;49.770;9.250;2023-02-18T13:07:35;12.00;99.90
67273;DHT22;54190;49.770;9.250;2023-02-18T13:10:19;12.00;99.90
67273;DHT22;54190;49.770;9.250;2023-02-18T13:13:07;11.90;99.90
67273;DHT22;54190;49.770;9.250;2023-02-18T13:15:39;11.90;99.90
67273;DHT22;54190;49.770;9.250;2023-02-18T13:18:11;11.90;99.90
67273;DHT22;54190;49.770;9.250;2023-02-18T13:20:42;11.90;99.90
67273;DHT22;54190;49.770;9.250;2023-02-18T13:23:17;11.90;99.90
67273;DHT22;54190;49.770;9.250;2023-02-18T13:25:44;12.00;99.90
67273;DHT22;54190;49.770;9.250;2023-02-18T13:28:48;12.10;99.90
67273;DHT22;54190;49.770;9.250;2023-02-18T13:31:27;12.10;99.90
67273;DHT22;54190;49.770;9.250;2023-02-18T13:34:23;12.10;99.90
67273;DHT22;54190;49.770;9.250;2023-02-18T13:37:01;12.20;99.90
67273;DHT22;54190;49.770;9.250;2023-02-18T13:39:29;12.20;99.90
67273;DHT22;54190;49.770;9.250;2023-02-18T13:47:36;12.20;99.90
67273;DHT22;54190;49.770;9.250;2023-02-18T13:50:22;12.20;99.90
67273;DHT22;54190;49.770;9.250;2023-02-18T13:56:06;12.30;99.90
67273;DHT22;54190;49.770;9.250;2023-02-18T13:58:37;12.30;99.90
67273;DHT22;54190;49.770;9.250;2023-02-18T14:06:15;12.30;99.90
67273;DHT22;54190;49.770;9.250;2023-02-18T14:08:42;12.20;99.90
67273;DHT22;54190;49.770;9.250;2023-02-18T14:13:48;12.10;99.90
67273;DHT22;54190;49.770;9.250;2023-02-18T14:16:15;12.10;99.90
67273;DHT22;54190;49.770;9.250;2023-02-18T14:23:56;11.90;99.90
67273;DHT22;54190;49.770;9.250;2023-02-18T14:26:28;11.80;99.90
67273;DHT22;54190;49.770;9.250;2023-02-18T14:28:59;11.70;99.90
67273;DHT22;54190;49.770;9.250;2023-02-18T14:31:32;11.60;99.90
67273;DHT22;54190;49.770;9.250;2023-02-18T14:42:28;11.40;99.90
67273;DHT22;54190;49.770;9.250;2023-02-18T14:44:59;11.40;99.90
67273;DHT22;54190;49.770;9.250;2023-02-18T14:50:10;11.30;99.90
67273;DHT22;54190;49.770;9.250;2023-02-18T14:55:18;11.30;99.90
67273;DHT22;54190;49.770;9.250;2023-02-18T14:57:51;11.20;99.90
67273;DHT22;54190;49.770;9.250;2023-02-18T15:00:22;11.20;99.90
67273;DHT22;54190;49.770;9.250;2023-02-18T15:02:53;11.10;99.90
67273;DHT22;54190;49.770;9.250;2023-02-18T15:05:21;11.20;99.90
67273;DHT22;54190;49.770;9.250;2023-02-18T15:08:02;11.10;99.90
67273;DHT22;54190;49.770;9.250;2023-02-18T15:13:21;11.00;99.90
67273;DHT22;54190;49.770;9.250;2023-02-18T15:15:51;10.90;99.90
67273;DHT22;54190;49.770;9.250;2023-02-18T15:18:30;11.00;99.90
67273;DHT22;54190;49.770;9.250;2023-02-18T15:21:04;11.00;99.90
67273;DHT22;54190;49.770;9.250;2023-02-18T15:23:33;11.00;99.90
67273;DHT22;54190;49.770;9.250;2023-02-18T15:26:00;11.00;99.90
67273;DHT22;54190;49.770;9.250;2023-02-18T15:28:28;10.90;99.90
67273;DHT22;54190;49.770;9.250;2023-02-18T15:30:58;10.90;99.90
67273;DHT22;54190;49.770;9.250;2023-02-18T15:33:24;10.90;99.90
67273;DHT22;54190;49.770;9.250;2023-02-18T15:35:51;10.80;99.90
67273;DHT22;54190;49.770;9.250;2023-02-18T15:38:18;10.80;99.90
67273;DHT22;54190;49.770;9.250;2023-02-18T15:40:52;10.70;99.90
67273;DHT22;54190;49.770;9.250;2023-02-18T15:43:23;10.70;99.90
67273;DHT22;54190;49.770;9.250;2023-02-18T15:45:54;10.70;99.90
67273;DHT22;54190;49.770;9.250;2023-02-18T15:48:26;10.60;99.90
67273;DHT22;54190;49.770;9.250;2023-02-18T15:50:55;10.60;99.90
67273;DHT22;54190;49.770;9.250;2023-02-18T15:53:22;10.50;99.90
67273;DHT22;54190;49.770;9.250;2023-02-18T15:55:51;10.50;99.90
67273;DHT22;54190;49.770;9.250;2023-02-18T15:58:28;10.50;99.90
67273;DHT22;54190;49.770;9.250;2023-02-18T16:00:57;10.40;99.90
67273;DHT22;54190;49.770;9.250;2023-02-18T16:03:32;10.40;99.90
67273;DHT22;54190;49.770;9.250;2023-02-18T16:06:17;10.40;99.90
67273;DHT22;54190;49.770;9.250;2023-02-18T16:09:00;10.40;99.90
67273;DHT22;54190;49.770;9.250;2023-02-18T16:11:32;10.40;99.90
67273;DHT22;54190;49.770;9.250;2023-02-18T16:13:59;10.40;99.90
67273;DHT22;54190;49.770;9.250;2023-02-18T16:16:34;10.40;99.90
67273;DHT22;54190;49.770;9.250;2023-02-18T16:19:01;10.30;99.90
67273;DHT22;54190;49.770;9.250;2023-02-18T16:21:32;10.30;99.90
67273;DHT22;54190;49.770;9.250;2023-02-18T16:24:19;10.30;99.90
67273;DHT22;54190;49.770;9.250;2023-02-18T16:26:49;10.40;99.90
67273;DHT22;54190;49.770;9.250;2023-02-18T16:29:34;10.30;99.90
67273;DHT22;54190;49.770;9.250;2023-02-18T16:32:00;10.30;99.90
67273;DHT22;54190;49.770;9.250;2023-02-18T16:34:26;10.30;99.90
67273;DHT22;54190;49.770;9.250;2023-02-18T16:36:55;10.20;99.90
67273;DHT22;54190;49.770;9.250;2023-02-18T16:39:39;10.20;99.90
67273;DHT22;54190;49.770;9.250;2023-02-18T16:42:09;10.20;99.90
67273;DHT22;54190;49.770;9.250;2023-02-18T16:44:34;10.20;99.90
67273;DHT22;54190;49.770;9.250;2023-02-18T16:47:00;10.20;99.90
67273;DHT22;54190;49.770;9.250;2023-02-18T16:49:26;10.20;99.90
67273;DHT22;54190;49.770;9.250;2023-02-18T16:51:52;10.20;99.90
67273;DHT22;54190;49.770;9.250;2023-02-18T16:54:18;10.20;99.90
67273;DHT22;54190;49.770;9.250;2023-02-18T16:56:44;10.20;99.90
67273;DHT22;54190;49.770;9.250;2023-02-18T16:59:09;10.10;99.90
67273;DHT22;54190;49.770;9.250;2023-02-18T17:01:41;10.20;99.90
67273;DHT22;54190;49.770;9.250;2023-02-18T17:04:14;10.20;99.90
67273;DHT22;54190;49.770;9.250;2023-02-18T17:06:40;10.20;99.90
67273;DHT22;54190;49.770;9.250;2023-02-18T17:09:17;10.20;99.90
67273;DHT22;54190;49.770;9.250;2023-02-18T17:11:47;10.10;99.90
67273;DHT22;54190;49.770;9.250;2023-02-18T17:14:18;10.20;99.90
67273;DHT22;54190;49.770;9.250;2023-02-18T17:16:49;10.20;99.90
67273;DHT22;54190;49.770;9.250;2023-02-18T17:19:16;10.20;99.90
67273;DHT22;54190;49.770;9.250;2023-02-18T17:21:42;10.20;99.90
67273;DHT22;54190;49.770;9.250;2023-02-18T17:24:16;10.20;99.90
67273;DHT22;54190;49.770;9.250;2023-02-18T17:26:42;10.20;99.90
67273;DHT22;54190;49.770;9.250;2023-02-18T17:29:08;10.20;99.90
67273;DHT22;54190;49.770;9.250;2023-02-18T17:31:39;10.20;99.90
67273;DHT22;54190;49.770;9.250;2023-02-18T17:34:08;10.20;99.90
67273;DHT22;54190;49.770;9.250;2023-02-18T17:36:34;10.20;99.90
67273;DHT22;54190;49.770;9.250;2023-02-18T17:39:00;10.30;99.90
67273;DHT22;54190;49.770;9.250;2023-02-18T17:41:26;10.30;99.90
67273;DHT22;54190;49.770;9.250;2023-02-18T17:43:51;10.30;99.90
67273;DHT22;54190;49.770;9.250;2023-02-18T17:46:18;10.30;99.90
67273;DHT22;54190;49.770;9.250;2023-02-18T17:48:45;10.40;99.90
67273;DHT22;54190;49.770;9.250;2023-02-18T17:51:29;10.30;99.90
67273;DHT22;54190;49.770;9.250;2023-02-18T17:53:55;10.30;99.90
67273;DHT22;54190;49.770;9.250;2023-02-18T17:56:21;10.30;99.90
67273;DHT22;54190;49.770;9.250;2023-02-18T17:58:47;10.30;99.90
67273;DHT22;54190;49.770;9.250;2023-02-18T18:01:13;10.30;99.90
67273;DHT22;54190;49.770;9.250;2023-02-18T18:03:39;10.40;99.90
67273;DHT22;54190;49.770;9.250;2023-02-18T18:06:13;10.30;99.90